createdAt,value
2023-05-01T00:01:20.737Z,100522.62
2023-05-01T00:04:48.691Z,100521.82
2023-05-01T00:08:05.366Z,100517.95
2023-05-01T00:11:26.266Z,100520.34
2023-05-01T00:14:49.584Z,100524.22
2023-05-01T00:18:12.990Z,100518.61
2023-05-01T00:21:21.787Z,100517.48
2023-05-01T00:24:48.123Z,100512.35
2023-05-01T00:27:57.989Z,100514.80
2023-05-01T00:31:25.927Z,100514.84
2023-05-01T00:34:34.728Z,100517.80
2023-05-01T00:37:44.403Z,100516.77
2023-05-01T00:41:12.325Z,100518.86
2023-05-01T00:44:21.338Z,100516.91
2023-05-01T00:47:27.059Z,100518.02
2023-05-01T00:50:54.890Z,100521.98
2023-05-01T00:54:06.668Z,100521.79
2023-05-01T00:57:34.586Z,100521.34
2023-05-01T01:00:24.980Z,100525.20
2023-05-01T01:03:34.152Z,100530.47
2023-05-01T01:07:02.152Z,100527.54
2023-05-01T01:10:11.159Z,100524.36
2023-05-01T01:13:38.964Z,100533.64
2023-05-01T01:17:06.786Z,100535.76
2023-05-01T01:20:15.875Z,100538.41
2023-05-01T01:23:43.968Z,100539.48
2023-05-01T01:27:04.551Z,100540.84
2023-05-01T01:30:13.329Z,100541.14
2023-05-01T01:33:38.384Z,100541.43
2023-05-01T01:36:57.472Z,100539.99
2023-05-01T01:40:25.334Z,100539.55
2023-05-01T01:43:53.004Z,100542.89
2023-05-01T01:47:16.217Z,100542.09
2023-05-01T01:50:43.955Z,100538.40
2023-05-01T01:53:29.862Z,100545.39
2023-05-01T01:56:57.535Z,100546.92
2023-05-01T02:00:25.431Z,100545.86
2023-05-01T02:03:53.327Z,100543.41
2023-05-01T02:06:44.456Z,100545.39
2023-05-01T02:09:54.036Z,100543.35
2023-05-01T02:13:21.891Z,100541.20
2023-05-01T02:16:50.593Z,100536.85
2023-05-01T02:20:18.429Z,100540.50
2023-05-01T02:23:28.167Z,100540.49
2023-05-01T02:26:51.892Z,100532.80
2023-05-01T02:30:19.726Z,100528.55
2023-05-01T02:33:31.875Z,100535.20
2023-05-01T02:36:47.562Z,100533.30
2023-05-01T02:40:11.215Z,100533.43
2023-05-01T02:43:20.894Z,100535.12
2023-05-01T02:46:29.790Z,100539.71
2023-05-01T02:49:57.732Z,100535.73
2023-05-01T02:53:09.239Z,100536.72
2023-05-01T02:56:37.341Z,100540.35
2023-05-01T03:00:05.147Z,100543.73
2023-05-01T03:03:13.975Z,100543.06
2023-05-01T03:06:18.238Z,100545.70
2023-05-01T03:09:22.191Z,100545.57
2023-05-01T03:12:14.846Z,100542.83
2023-05-01T03:15:22.543Z,100548.27
2023-05-01T03:18:34.079Z,100548.36
2023-05-01T03:21:58.019Z,100551.80
2023-05-01T03:25:06.778Z,100559.13
2023-05-01T03:28:34.475Z,100562.62
2023-05-01T03:31:42.815Z,100563.81
2023-05-01T03:34:47.661Z,100563.91
2023-05-01T03:38:15.435Z,100563.41
2023-05-01T03:41:52.325Z,100565.64
2023-05-01T03:45:20.573Z,100564.52
2023-05-01T03:48:29.703Z,100562.14
2023-05-01T03:51:57.541Z,100562.45
2023-05-01T03:55:25.246Z,100563.02
2023-05-01T03:58:14.867Z,100562.02
2023-05-01T04:01:24.044Z,100560.23
2023-05-01T04:04:32.899Z,100563.86
2023-05-01T04:07:29.709Z,100563.77
2023-05-01T04:10:45.411Z,100565.01
2023-05-01T04:14:13.744Z,100565.77
2023-05-01T04:17:41.389Z,100563.67
2023-05-01T04:21:06.229Z,100567.54
2023-05-01T04:24:16.373Z,100576.36
2023-05-01T04:27:44.131Z,100579.50
2023-05-01T04:31:12.223Z,100584.88
2023-05-01T04:34:39.908Z,100585.73
2023-05-01T04:38:07.612Z,100585.20
2023-05-01T04:41:35.465Z,100582.74
2023-05-01T04:45:03.222Z,100580.39
2023-05-01T04:48:30.850Z,100583.20
2023-05-01T04:51:58.589Z,100587.77
2023-05-01T04:55:26.650Z,100596.71
2023-05-01T04:58:42.669Z,100595.75
2023-05-01T05:02:10.594Z,100595.25
2023-05-01T05:05:38.569Z,100598.50
2023-05-01T05:09:06.392Z,100606.91
2023-05-01T05:12:34.210Z,100615.20
2023-05-01T05:16:02.002Z,100608.80
2023-05-01T05:19:29.762Z,100613.83
2023-05-01T05:22:57.526Z,100621.34
2023-05-01T05:26:25.289Z,100625.95
2023-05-01T05:29:53.443Z,100624.84
2023-05-01T05:32:58.225Z,100625.89
2023-05-01T05:36:06.880Z,100628.16
2023-05-01T05:39:34.977Z,100631.10
2023-05-01T05:42:44.710Z,100624.63
2023-05-01T05:46:08.475Z,100624.88
2023-05-01T05:49:36.187Z,100633.55
2023-05-01T05:52:51.947Z,100634.89
2023-05-01T05:56:02.218Z,100640.50
2023-05-01T05:59:26.100Z,100643.23
2023-05-01T06:02:34.802Z,100650.48
2023-05-01T06:06:02.632Z,100650.42
2023-05-01T06:09:30.405Z,100650.86
2023-05-01T06:13:08.779Z,100655.50
2023-05-01T06:16:26.103Z,100658.35
2023-05-01T06:19:36.034Z,100659.98
2023-05-01T06:23:03.817Z,100659.20
2023-05-01T06:26:05.253Z,100653.27
2023-05-01T06:29:02.856Z,100651.79
2023-05-01T06:32:19.034Z,100649.19
2023-05-01T06:35:46.937Z,100649.98
2023-05-01T06:38:57.394Z,100653.10
2023-05-01T06:41:34.718Z,100650.55
2023-05-01T06:44:24.525Z,100656.15
2023-05-01T06:47:52.595Z,100653.37
2023-05-01T06:51:20.210Z,100653.31
2023-05-01T06:54:48.193Z,100654.27
2023-05-01T06:57:55.948Z,100653.70
2023-05-01T07:00:52.362Z,100658.17
2023-05-01T07:04:20.004Z,100660.86
2023-05-01T07:07:57.808Z,100660.52
2023-05-01T07:11:15.850Z,100663.65
2023-05-01T07:14:24.624Z,100665.52
2023-05-01T07:17:48.473Z,100669.79
2023-05-01T07:21:04.387Z,100672.90
2023-05-01T07:24:29.298Z,100676.00
2023-05-01T07:27:56.974Z,100677.89
2023-05-01T07:31:25.491Z,100682.35
2023-05-01T07:34:53.280Z,100685.77
2023-05-01T07:38:19.067Z,100691.86
2023-05-01T07:41:27.624Z,100685.64
2023-05-01T07:44:55.320Z,100686.73
2023-05-01T07:48:03.790Z,100691.23
2023-05-01T07:51:27.110Z,100693.32
2023-05-01T07:54:38.726Z,100695.69
2023-05-01T07:57:35.826Z,100690.81
2023-05-01T08:01:03.709Z,100691.45
2023-05-01T08:03:58.254Z,100691.38
2023-05-01T08:07:25.867Z,100693.66
2023-05-01T08:10:35.616Z,100693.81
2023-05-01T08:13:58.824Z,100691.39
2023-05-01T08:17:07.276Z,100691.78
2023-05-01T08:20:32.578Z,100693.62
2023-05-01T08:23:29.608Z,100691.04
2023-05-01T08:26:47.542Z,100694.63
2023-05-01T08:30:12.524Z,100694.92
2023-05-01T08:33:24.166Z,100695.36
2023-05-01T08:36:43.476Z,100696.97
2023-05-01T08:39:59.433Z,100696.67
2023-05-01T08:43:27.017Z,100698.73
2023-05-01T08:46:54.876Z,100696.02
2023-05-01T08:49:45.093Z,100693.23
2023-05-01T08:53:08.765Z,100694.72
2023-05-01T08:56:36.587Z,100692.41
2023-05-01T09:00:04.254Z,100688.63
2023-05-01T09:03:27.406Z,100686.70
2023-05-01T09:06:55.112Z,100676.68
2023-05-01T09:10:22.818Z,100678.86
2023-05-01T09:13:31.075Z,100677.27
2023-05-01T09:16:59.018Z,100679.02
2023-05-01T09:19:55.990Z,100681.48
2023-05-01T09:23:23.538Z,100682.81
2023-05-01T09:26:46.904Z,100675.21
2023-05-01T09:29:59.551Z,100678.48
2023-05-01T09:32:49.553Z,100681.71
2023-05-01T09:36:09.153Z,100682.34
2023-05-01T09:39:37.217Z,100678.77
2023-05-01T09:42:46.157Z,100678.83
2023-05-01T09:45:49.794Z,100678.06
2023-05-01T09:49:01.592Z,100674.52
2023-05-01T09:52:29.323Z,100668.33
2023-05-01T09:55:40.873Z,100666.75
2023-05-01T09:58:50.599Z,100663.34
2023-05-01T10:02:02.549Z,100659.15
2023-05-01T10:05:31.521Z,100662.11
2023-05-01T10:08:59.515Z,100664.05
2023-05-01T10:11:47.886Z,100658.77
2023-05-01T10:14:53.516Z,100655.23
2023-05-01T10:18:01.447Z,100653.41
2023-05-01T10:21:25.286Z,100655.27
2023-05-01T10:24:22.810Z,100657.23
2023-05-01T10:27:26.425Z,100654.64
2023-05-01T10:30:30.920Z,100654.51
2023-05-01T10:33:58.908Z,100651.30
2023-05-01T10:37:24.799Z,100650.50
2023-05-01T10:40:16.574Z,100651.02
2023-05-01T10:43:44.428Z,100650.15
2023-05-01T10:46:33.205Z,100643.75
2023-05-01T10:50:00.860Z,100644.77
2023-05-01T10:53:28.644Z,100642.59
2023-05-01T10:56:56.550Z,100640.70
2023-05-01T11:00:08.068Z,100634.36
2023-05-01T11:02:56.990Z,100632.70
2023-05-01T11:06:05.949Z,100635.67
2023-05-01T11:09:30.898Z,100638.30
2023-05-01T11:12:58.523Z,100645.38
2023-05-01T11:16:07.582Z,100637.85
2023-05-01T11:19:35.429Z,100626.98
2023-05-01T11:22:27.234Z,100624.42
2023-05-01T11:25:43.261Z,100627.15
2023-05-01T11:28:51.182Z,100627.44
2023-05-01T11:31:59.345Z,100625.93
2023-05-01T11:35:16.445Z,100621.48
2023-05-01T11:38:44.446Z,100623.20
2023-05-01T11:41:55.715Z,100615.87
2023-05-01T11:45:07.951Z,100619.41
2023-05-01T11:48:11.842Z,100621.59
2023-05-01T11:51:39.579Z,100615.75
2023-05-01T11:54:29.880Z,100607.16
2023-05-01T11:57:38.227Z,100604.83
2023-05-01T12:00:47.408Z,100609.44
2023-05-01T12:03:57.657Z,100605.70
2023-05-01T12:07:05.705Z,100606.15
2023-05-01T12:10:17.385Z,100601.88
2023-05-01T12:13:45.161Z,100599.13
2023-05-01T12:16:35.116Z,100593.19
2023-05-01T12:19:44.219Z,100588.77
2023-05-01T12:23:11.930Z,100587.59
2023-05-01T12:26:39.502Z,100582.26
2023-05-01T12:29:47.669Z,100579.52
2023-05-01T12:33:15.351Z,100576.77
2023-05-01T12:36:03.757Z,100575.25
2023-05-01T12:39:31.515Z,100571.91
2023-05-01T12:42:55.719Z,100573.53
2023-05-01T12:46:23.553Z,100574.41
2023-05-01T12:49:33.375Z,100571.52
2023-05-01T12:52:03.770Z,100570.18
2023-05-01T12:55:31.409Z,100563.79
2023-05-01T12:58:59.197Z,100556.04
2023-05-01T13:02:28.182Z,100555.65
2023-05-01T13:05:36.071Z,100551.05
2023-05-01T13:08:25.590Z,100550.38
2023-05-01T13:11:34.250Z,100548.14
2023-05-01T13:14:08.136Z,100549.08
2023-05-01T13:17:19.521Z,100547.54
2023-05-01T13:20:27.720Z,100544.23
2023-05-01T13:23:15.566Z,100540.86
2023-05-01T13:26:31.606Z,100542.33
2023-05-01T13:28:59.659Z,100540.19
2023-05-01T13:31:52.340Z,100532.88
2023-05-01T13:34:22.151Z,100531.05
2023-05-01T13:37:09.495Z,100526.85
2023-05-01T13:39:49.313Z,100523.82
2023-05-01T13:42:21.216Z,100524.86
2023-05-01T13:45:12.331Z,100525.48
2023-05-01T13:47:52.439Z,100523.14
2023-05-01T13:51:07.839Z,100518.55
2023-05-01T13:54:16.021Z,100522.39
2023-05-01T13:57:23.793Z,100516.95
2023-05-01T14:00:14.125Z,100518.30
2023-05-01T14:03:03.245Z,100518.11
2023-05-01T14:06:01.509Z,100514.79
2023-05-01T14:08:50.636Z,100506.88
2023-05-01T14:12:05.809Z,100508.77
2023-05-01T14:15:17.343Z,100504.23
2023-05-01T14:18:07.468Z,100507.85
2023-05-01T14:20:35.749Z,100500.70
2023-05-01T14:23:04.186Z,100497.85
2023-05-01T14:25:57.132Z,100491.79
2023-05-01T14:28:46.244Z,100494.36
2023-05-01T14:31:15.313Z,100493.67
2023-05-01T14:33:44.064Z,100490.51
2023-05-01T14:36:51.976Z,100494.19
2023-05-01T14:39:25.147Z,100500.00
2023-05-01T14:41:55.344Z,100492.04
2023-05-01T14:44:46.122Z,100489.48
2023-05-01T14:47:15.628Z,100486.14
2023-05-01T14:49:49.943Z,100480.92
2023-05-01T14:52:18.430Z,100480.09
2023-05-01T14:54:47.032Z,100483.80
2023-05-01T14:57:15.596Z,100485.61
2023-05-01T15:00:24.391Z,100485.85
2023-05-01T15:03:12.635Z,100483.86
2023-05-01T15:05:42.245Z,100482.86
2023-05-01T15:08:21.356Z,100484.27
2023-05-01T15:11:49.358Z,100483.83
2023-05-01T15:14:46.324Z,100482.20
2023-05-01T15:18:15.879Z,100479.39
2023-05-01T15:21:07.386Z,100479.19
2023-05-01T15:24:18.634Z,100481.35
2023-05-01T15:27:10.272Z,100480.64
2023-05-01T15:30:06.852Z,100485.13
2023-05-01T15:32:40.474Z,100485.41
2023-05-01T15:35:10.081Z,100484.16
2023-05-01T15:38:00.571Z,100479.23
2023-05-01T15:40:50.571Z,100476.25
2023-05-01T15:43:43.101Z,100479.15
2023-05-01T15:47:11.290Z,100478.52
2023-05-01T15:49:44.973Z,100477.84
2023-05-01T15:52:40.163Z,100478.18
2023-05-01T15:56:08.009Z,100477.91
2023-05-01T15:58:45.459Z,100479.75
2023-05-01T16:01:22.882Z,100474.11
2023-05-01T16:04:16.039Z,100471.48
2023-05-01T16:07:44.089Z,100471.71
2023-05-01T16:11:12.610Z,100475.84
2023-05-01T16:14:22.578Z,100475.58
2023-05-01T16:17:14.527Z,100470.35
2023-05-01T16:20:18.750Z,100468.56
2023-05-01T16:22:49.541Z,100471.25
2023-05-01T16:25:29.441Z,100469.30
2023-05-01T16:28:36.628Z,100474.45
2023-05-01T16:31:27.769Z,100473.45
2023-05-01T16:34:17.243Z,100470.77
2023-05-01T16:36:46.489Z,100471.16
2023-05-01T16:39:31.877Z,100475.25
2023-05-01T16:42:03.806Z,100476.96
2023-05-01T16:44:51.856Z,100471.32
2023-05-01T16:47:40.028Z,100480.67
2023-05-01T16:50:08.777Z,100479.89
2023-05-01T16:52:40.991Z,100483.29
2023-05-01T16:55:09.370Z,100485.28
2023-05-01T16:57:42.332Z,100483.67
2023-05-01T17:00:50.290Z,100487.96
2023-05-01T17:03:59.215Z,100488.02
2023-05-01T17:07:26.944Z,100488.21
2023-05-01T17:10:55.846Z,100480.98
2023-05-01T17:14:23.859Z,100480.74
2023-05-01T17:17:51.655Z,100483.66
2023-05-01T17:21:07.359Z,100484.95
2023-05-01T17:24:35.380Z,100490.64
2023-05-01T17:28:03.431Z,100489.45
2023-05-01T17:30:51.967Z,100491.52
2023-05-01T17:33:22.941Z,100492.08
2023-05-01T17:36:50.822Z,100492.52
2023-05-01T17:39:59.760Z,100492.52
2023-05-01T17:43:27.805Z,100498.11
2023-05-01T17:46:37.794Z,100498.55
2023-05-01T17:50:05.566Z,100496.31
2023-05-01T17:52:54.753Z,100492.25
2023-05-01T17:55:45.766Z,100500.31
2023-05-01T17:58:36.987Z,100496.11
2023-05-01T18:01:28.076Z,100495.61
2023-05-01T18:04:55.984Z,100495.56
2023-05-01T18:08:23.943Z,100501.33
2023-05-01T18:11:31.800Z,100501.72
2023-05-01T18:14:59.672Z,100496.40
2023-05-01T18:18:27.873Z,100499.31
2023-05-01T18:21:16.931Z,100501.95
2023-05-01T18:24:24.940Z,100508.77
2023-05-01T18:27:53.137Z,100511.48
2023-05-01T18:31:16.546Z,100515.05
2023-05-01T18:34:06.672Z,100518.45
2023-05-01T18:36:56.369Z,100517.47
2023-05-01T18:40:24.042Z,100516.90
2023-05-01T18:43:34.296Z,100517.26
2023-05-01T18:47:02.200Z,100520.35
2023-05-01T18:50:12.151Z,100521.45
2023-05-01T18:53:09.809Z,100520.66
2023-05-01T18:55:43.398Z,100523.10
2023-05-01T18:59:11.389Z,100525.33
2023-05-01T19:01:39.867Z,100526.63
2023-05-01T19:04:30.754Z,100527.66
2023-05-01T19:07:58.562Z,100532.19
2023-05-01T19:11:07.513Z,100533.14
2023-05-01T19:14:35.628Z,100538.10
2023-05-01T19:18:03.709Z,100542.77
2023-05-01T19:20:53.203Z,100543.32
2023-05-01T19:24:21.163Z,100542.36
2023-05-01T19:27:49.029Z,100550.30
2023-05-01T19:31:17.038Z,100544.23
2023-05-01T19:34:25.986Z,100549.89
2023-05-01T19:37:54.020Z,100555.81
2023-05-01T19:41:22.056Z,100554.25
2023-05-01T19:44:38.344Z,100553.21
2023-05-01T19:47:47.462Z,100558.59
2023-05-01T19:50:37.622Z,100562.54
2023-05-01T19:54:05.481Z,100561.69
2023-05-01T19:56:54.898Z,100560.69
2023-05-01T19:59:24.725Z,100561.20
2023-05-01T20:02:13.205Z,100560.88
2023-05-01T20:05:40.940Z,100565.14
2023-05-01T20:09:09.034Z,100575.27
2023-05-01T20:12:06.151Z,100575.08
2023-05-01T20:14:57.066Z,100575.42
2023-05-01T20:17:29.805Z,100577.73
2023-05-01T20:19:59.390Z,100575.45
2023-05-01T20:22:51.826Z,100572.57
2023-05-01T20:25:40.763Z,100577.27
2023-05-01T20:28:36.639Z,100580.52
2023-05-01T20:31:45.979Z,100581.23
2023-05-01T20:34:55.279Z,100584.20
2023-05-01T20:38:28.993Z,100583.88
2023-05-01T20:41:57.004Z,100586.04
2023-05-01T20:45:20.491Z,100588.01
2023-05-01T20:48:01.728Z,100587.86
2023-05-01T20:50:45.754Z,100590.96
2023-05-01T20:54:13.678Z,100589.70
2023-05-01T20:57:42.142Z,100587.45
2023-05-01T21:00:31.102Z,100589.77
2023-05-01T21:03:59.324Z,100592.67
2023-05-01T21:06:48.521Z,100595.23
2023-05-01T21:10:16.317Z,100596.63
2023-05-01T21:13:44.134Z,100595.05
2023-05-01T21:17:11.955Z,100593.13
2023-05-01T21:20:39.758Z,100595.99
2023-05-01T21:23:56.897Z,100595.21
2023-05-01T21:27:14.091Z,100592.61
2023-05-01T21:30:22.305Z,100592.30
2023-05-01T21:33:50.290Z,100592.41
2023-05-01T21:37:19.764Z,100591.90
2023-05-01T21:40:47.582Z,100592.41
2023-05-01T21:44:15.560Z,100593.38
2023-05-01T21:47:43.950Z,100596.03
2023-05-01T21:51:12.772Z,100601.31
2023-05-01T21:53:50.534Z,100598.29
2023-05-01T21:56:41.940Z,100605.10
2023-05-01T21:59:49.599Z,100599.27
2023-05-01T22:03:23.330Z,100598.73
2023-05-01T22:06:32.194Z,100600.81
2023-05-01T22:10:02.148Z,100599.56
2023-05-01T22:13:32.113Z,100594.02
2023-05-01T22:17:00.157Z,100597.80
2023-05-01T22:20:28.017Z,100598.98
2023-05-01T22:23:56.285Z,100595.61
2023-05-01T22:27:24.362Z,100595.81
2023-05-01T22:30:48.074Z,100597.09
2023-05-01T22:34:16.950Z,100600.11
2023-05-01T22:37:44.807Z,100601.03
2023-05-01T22:41:14.870Z,100599.66
2023-05-01T22:44:44.885Z,100601.30
2023-05-01T22:48:13.193Z,100601.08
2023-05-01T22:51:42.723Z,100596.58
2023-05-01T22:55:17.420Z,100596.56
2023-05-01T22:58:47.673Z,100605.30
2023-05-01T23:02:17.169Z,100605.25
2023-05-01T23:05:45.329Z,100604.81
2023-05-01T23:09:13.047Z,100603.85
2023-05-01T23:12:41.112Z,100599.25
2023-05-01T23:16:10.277Z,100600.54
2023-05-01T23:19:38.276Z,100595.67
2023-05-01T23:23:06.314Z,100594.42
2023-05-01T23:26:02.861Z,100587.75
2023-05-01T23:29:12.008Z,100587.98
2023-05-01T23:32:40.072Z,100584.36
2023-05-01T23:35:49.261Z,100583.70
2023-05-01T23:39:17.325Z,100582.71
2023-05-01T23:42:45.232Z,100580.84
2023-05-01T23:46:13.255Z,100577.35
2023-05-01T23:49:41.657Z,100579.83
2023-05-01T23:53:09.726Z,100577.32
2023-05-01T23:56:37.915Z,100577.77
